sensor_id;sensor_type;location;lat;lon;timestamp;temperature;humidity
24049;DHT22;12250;50.956;4.746;2023-04-24T00:00:04;10.70;99.90
24049;DHT22;12250;50.956;4.746;2023-04-24T00:02:38;10.80;99.90
24049;DHT22;12250;50.956;4.746;2023-04-24T00:05:05;10.70;99.90
24049;DHT22;12250;50.956;4.746;2023-04-24T00:07:32;10.70;99.90
24049;DHT22;12250;50.956;4.746;2023-04-24T00:09:57;10.70;99.90
24049;DHT22;12250;50.956;4.746;2023-04-24T00:12:23;10.80;99.90
24049;DHT22;12250;50.956;4.746;2023-04-24T00:14:49;10.80;99.90
24049;DHT22;12250;50.956;4.746;2023-04-24T00:17:15;10.70;99.90
24049;DHT22;12250;50.956;4.746;2023-04-24T00:19:41;10.70;99.90
24049;DHT22;12250;50.956;4.746;2023-04-24T00:22:07;10.70;99.90
24049;DHT22;12250;50.956;4.746;2023-04-24T00:24:33;10.70;99.90
24049;DHT22;12250;50.956;4.746;2023-04-24T00:26:58;10.70;99.90
24049;DHT22;12250;50.956;4.746;2023-04-24T00:29:26;10.70;99.90
24049;DHT22;12250;50.956;4.746;2023-04-24T00:31:52;10.80;99.90
24049;DHT22;12250;50.956;4.746;2023-04-24T00:34:17;10.80;99.90
24049;DHT22;12250;50.956;4.746;2023-04-24T00:36:43;10.90;99.90
24049;DHT22;12250;50.956;4.746;2023-04-24T00:39:09;10.80;99.90
24049;DHT22;12250;50.956;4.746;2023-04-24T00:41:35;10.80;99.90
24049;DHT22;12250;50.956;4.746;2023-04-24T00:44:01;10.80;99.90
24049;DHT22;12250;50.956;4.746;2023-04-24T00:46:27;10.80;99.90
24049;DHT22;12250;50.956;4.746;2023-04-24T00:48:53;10.70;99.90
24049;DHT22;12250;50.956;4.746;2023-04-24T00:51:19;10.90;99.90
24049;DHT22;12250;50.956;4.746;2023-04-24T00:53:46;10.90;99.90
24049;DHT22;12250;50.956;4.746;2023-04-24T00:56:12;10.80;99.90
24049;DHT22;12250;50.956;4.746;2023-04-24T00:58:38;10.80;99.90
24049;DHT22;12250;50.956;4.746;2023-04-24T01:01:05;10.70;99.90
24049;DHT22;12250;50.956;4.746;2023-04-24T01:03:33;10.70;99.90
24049;DHT22;12250;50.956;4.746;2023-04-24T01:05:59;10.60;99.90
24049;DHT22;12250;50.956;4.746;2023-04-24T01:08:26;10.60;99.90
24049;DHT22;12250;50.956;4.746;2023-04-24T01:10:54;10.50;99.90
24049;DHT22;12250;50.956;4.746;2023-04-24T01:13:20;10.50;99.90
24049;DHT22;12250;50.956;4.746;2023-04-24T01:15:47;10.40;99.90
24049;DHT22;12250;50.956;4.746;2023-04-24T01:18:13;10.30;99.90
24049;DHT22;12250;50.956;4.746;2023-04-24T01:20:40;10.40;99.90
24049;DHT22;12250;50.956;4.746;2023-04-24T01:23:08;10.30;99.90
24049;DHT22;12250;50.956;4.746;2023-04-24T01:25:33;10.30;99.90
24049;DHT22;12250;50.956;4.746;2023-04-24T01:27:59;10.40;99.90
24049;DHT22;12250;50.956;4.746;2023-04-24T01:30:26;10.40;99.90
24049;DHT22;12250;50.956;4.746;2023-04-24T01:32:53;10.50;99.90
24049;DHT22;12250;50.956;4.746;2023-04-24T01:35:19;10.50;99.90
24049;DHT22;12250;50.956;4.746;2023-04-24T01:37:45;10.50;99.90
24049;DHT22;12250;50.956;4.746;2023-04-24T01:40:11;10.50;99.90
24049;DHT22;12250;50.956;4.746;2023-04-24T01:42:38;10.50;99.90
24049;DHT22;12250;50.956;4.746;2023-04-24T01:45:05;10.50;99.90
24049;DHT22;12250;50.956;4.746;2023-04-24T01:47:31;10.50;99.90
24049;DHT22;12250;50.956;4.746;2023-04-24T01:49:58;10.50;99.90
24049;DHT22;12250;50.956;4.746;2023-04-24T01:52:24;10.50;99.90
24049;DHT22;12250;50.956;4.746;2023-04-24T01:54:50;10.50;99.90
24049;DHT22;12250;50.956;4.746;2023-04-24T01:57:16;10.40;99.90
24049;DHT22;12250;50.956;4.746;2023-04-24T01:59:42;10.50;99.90
24049;DHT22;12250;50.956;4.746;2023-04-24T02:02:07;10.40;99.90
24049;DHT22;12250;50.956;4.746;2023-04-24T02:04:33;10.40;99.90
24049;DHT22;12250;50.956;4.746;2023-04-24T02:06:59;10.40;99.90
24049;DHT22;12250;50.956;4.746;2023-04-24T02:09:25;10.40;99.90
24049;DHT22;12250;50.956;4.746;2023-04-24T02:11:51;10.40;99.90
24049;DHT22;12250;50.956;4.746;2023-04-24T02:14:16;10.40;99.90
24049;DHT22;12250;50.956;4.746;2023-04-24T02:16:42;10.30;99.90
24049;DHT22;12250;50.956;4.746;2023-04-24T02:19:09;10.30;99.90
24049;DHT22;12250;50.956;4.746;2023-04-24T02:21:35;10.20;99.90
24049;DHT22;12250;50.956;4.746;2023-04-24T02:24:01;10.20;99.90
24049;DHT22;12250;50.956;4.746;2023-04-24T02:26:27;10.10;99.90
24049;DHT22;12250;50.956;4.746;2023-04-24T02:28:52;10.00;99.90
24049;DHT22;12250;50.956;4.746;2023-04-24T02:31:18;9.90;99.90
24049;DHT22;12250;50.956;4.746;2023-04-24T02:33:44;9.90;99.90
24049;DHT22;12250;50.956;4.746;2023-04-24T02:36:10;9.90;99.90
24049;DHT22;12250;50.956;4.746;2023-04-24T02:38:35;9.80;99.90
24049;DHT22;12250;50.956;4.746;2023-04-24T02:41:01;9.80;99.90
24049;DHT22;12250;50.956;4.746;2023-04-24T02:43:27;9.70;99.90
24049;DHT22;12250;50.956;4.746;2023-04-24T02:45:53;9.70;99.90
24049;DHT22;12250;50.956;4.746;2023-04-24T02:48:19;9.70;99.90
24049;DHT22;12250;50.956;4.746;2023-04-24T02:50:47;9.70;99.90
24049;DHT22;12250;50.956;4.746;2023-04-24T02:53:13;9.60;99.90
24049;DHT22;12250;50.956;4.746;2023-04-24T02:55:38;9.70;99.90
24049;DHT22;12250;50.956;4.746;2023-04-24T02:58:04;9.70;99.90
24049;DHT22;12250;50.956;4.746;2023-04-24T03:00:31;9.70;99.90
24049;DHT22;12250;50.956;4.746;2023-04-24T03:02:57;9.70;99.90
24049;DHT22;12250;50.956;4.746;2023-04-24T03:05:22;9.60;99.90
24049;DHT22;12250;50.956;4.746;2023-04-24T03:07:48;9.70;99.90
24049;DHT22;12250;50.956;4.746;2023-04-24T03:10:14;9.70;99.90
24049;DHT22;12250;50.956;4.746;2023-04-24T03:12:39;9.70;99.90
24049;DHT22;12250;50.956;4.746;2023-04-24T03:15:06;9.70;99.90
24049;DHT22;12250;50.956;4.746;2023-04-24T03:17:31;9.70;99.90
24049;DHT22;12250;50.956;4.746;2023-04-24T03:19:57;9.70;99.90
24049;DHT22;12250;50.956;4.746;2023-04-24T03:22:23;9.70;99.90
24049;DHT22;12250;50.956;4.746;2023-04-24T03:24:48;9.60;99.90
24049;DHT22;12250;50.956;4.746;2023-04-24T03:27:14;9.60;99.90
24049;DHT22;12250;50.956;4.746;2023-04-24T03:29:40;9.60;99.90
24049;DHT22;12250;50.956;4.746;2023-04-24T03:32:06;9.60;99.90
24049;DHT22;12250;50.956;4.746;2023-04-24T03:34:31;9.60;99.90
24049;DHT22;12250;50.956;4.746;2023-04-24T03:36:57;9.50;99.90
24049;DHT22;12250;50.956;4.746;2023-04-24T03:39:23;9.50;99.90
24049;DHT22;12250;50.956;4.746;2023-04-24T03:41:50;9.50;99.90
24049;DHT22;12250;50.956;4.746;2023-04-24T03:44:15;9.50;99.90
24049;DHT22;12250;50.956;4.746;2023-04-24T03:46:41;9.50;99.90
24049;DHT22;12250;50.956;4.746;2023-04-24T03:49:06;9.50;99.90
24049;DHT22;12250;50.956;4.746;2023-04-24T03:51:32;9.50;99.90
24049;DHT22;12250;50.956;4.746;2023-04-24T03:53:58;9.50;99.90
24049;DHT22;12250;50.956;4.746;2023-04-24T03:56:24;9.50;99.90
24049;DHT22;12250;50.956;4.746;2023-04-24T03:58:49;9.60;99.90
24049;DHT22;12250;50.956;4.746;2023-04-24T04:01:15;9.50;99.90
24049;DHT22;12250;50.956;4.746;2023-04-24T04:03:41;9.50;99.90
24049;DHT22;12250;50.956;4.746;2023-04-24T04:06:07;9.50;99.90
24049;DHT22;12250;50.956;4.746;2023-04-24T04:08:32;9.40;99.90
24049;DHT22;12250;50.956;4.746;2023-04-24T04:10:58;9.40;99.90
24049;DHT22;12250;50.956;4.746;2023-04-24T04:13:24;9.50;99.90
24049;DHT22;12250;50.956;4.746;2023-04-24T04:15:50;9.50;99.90
24049;DHT22;12250;50.956;4.746;2023-04-24T04:18:15;9.50;99.90
24049;DHT22;12250;50.956;4.746;2023-04-24T04:20:41;9.40;99.90
24049;DHT22;12250;50.956;4.746;2023-04-24T04:23:07;9.50;99.90
24049;DHT22;12250;50.956;4.746;2023-04-24T04:25:33;9.40;99.90
24049;DHT22;12250;50.956;4.746;2023-04-24T04:27:58;9.30;99.90
24049;DHT22;12250;50.956;4.746;2023-04-24T04:30:25;9.30;99.90
24049;DHT22;12250;50.956;4.746;2023-04-24T04:32:51;9.30;99.90
24049;DHT22;12250;50.956;4.746;2023-04-24T04:35:17;9.30;99.90
24049;DHT22;12250;50.956;4.746;2023-04-24T04:37:43;9.40;99.90
24049;DHT22;12250;50.956;4.746;2023-04-24T04:40:08;9.40;99.90
24049;DHT22;12250;50.956;4.746;2023-04-24T04:42:37;9.40;99.90
24049;DHT22;12250;50.956;4.746;2023-04-24T04:45:09;9.40;99.90
24049;DHT22;12250;50.956;4.746;2023-04-24T04:47:37;9.50;99.90
24049;DHT22;12250;50.956;4.746;2023-04-24T04:50:03;9.50;99.90
24049;DHT22;12250;50.956;4.746;2023-04-24T04:52:29;9.40;99.90
24049;DHT22;12250;50.956;4.746;2023-04-24T04:54:55;9.50;99.90
24049;DHT22;12250;50.956;4.746;2023-04-24T04:57:21;9.50;99.90
24049;DHT22;12250;50.956;4.746;2023-04-24T04:59:47;9.40;99.90
24049;DHT22;12250;50.956;4.746;2023-04-24T05:02:13;9.40;99.90
24049;DHT22;12250;50.956;4.746;2023-04-24T05:04:38;9.40;99.90
24049;DHT22;12250;50.956;4.746;2023-04-24T05:07:04;9.40;99.90
24049;DHT22;12250;50.956;4.746;2023-04-24T05:09:30;9.40;99.90
24049;DHT22;12250;50.956;4.746;2023-04-24T05:11:56;9.30;99.90
24049;DHT22;12250;50.956;4.746;2023-04-24T05:14:22;9.20;99.90
24049;DHT22;12250;50.956;4.746;2023-04-24T05:16:48;9.30;99.90
24049;DHT22;12250;50.956;4.746;2023-04-24T05:19:15;9.20;99.90
24049;DHT22;12250;50.956;4.746;2023-04-24T05:21:41;9.10;99.90
24049;DHT22;12250;50.956;4.746;2023-04-24T05:24:06;9.10;99.90
24049;DHT22;12250;50.956;4.746;2023-04-24T05:26:32;9.10;99.90
24049;DHT22;12250;50.956;4.746;2023-04-24T05:28:58;9.10;99.90
24049;DHT22;12250;50.956;4.746;2023-04-24T05:31:24;9.10;99.90
24049;DHT22;12250;50.956;4.746;2023-04-24T05:33:50;9.20;99.90
24049;DHT22;12250;50.956;4.746;2023-04-24T05:36:16;9.20;99.90
24049;DHT22;12250;50.956;4.746;2023-04-24T05:38:42;9.20;99.90
24049;DHT22;12250;50.956;4.746;2023-04-24T05:41:07;9.20;99.90
24049;DHT22;12250;50.956;4.746;2023-04-24T05:43:33;9.20;99.90
24049;DHT22;12250;50.956;4.746;2023-04-24T05:45:58;9.30;99.90
24049;DHT22;12250;50.956;4.746;2023-04-24T05:48:25;9.30;99.90
24049;DHT22;12250;50.956;4.746;2023-04-24T05:50:50;9.20;99.90
24049;DHT22;12250;50.956;4.746;2023-04-24T05:53:18;9.20;99.90
24049;DHT22;12250;50.956;4.746;2023-04-24T05:55:44;9.20;99.90
24049;DHT22;12250;50.956;4.746;2023-04-24T05:58:10;9.20;99.90
24049;DHT22;12250;50.956;4.746;2023-04-24T06:00:36;9.10;99.90
24049;DHT22;12250;50.956;4.746;2023-04-24T06:03:03;9.10;99.90
24049;DHT22;12250;50.956;4.746;2023-04-24T06:05:29;9.10;99.90
24049;DHT22;12250;50.956;4.746;2023-04-24T06:07:55;9.10;99.90
24049;DHT22;12250;50.956;4.746;2023-04-24T06:10:21;9.10;99.90
24049;DHT22;12250;50.956;4.746;2023-04-24T06:12:47;9.10;99.90
24049;DHT22;12250;50.956;4.746;2023-04-24T06:15:13;9.10;99.90
24049;DHT22;12250;50.956;4.746;2023-04-24T06:17:38;9.10;99.90
24049;DHT22;12250;50.956;4.746;2023-04-24T06:20:05;9.20;99.90
24049;DHT22;12250;50.956;4.746;2023-04-24T06:22:32;9.10;99.90
24049;DHT22;12250;50.956;4.746;2023-04-24T06:24:58;9.10;99.90
24049;DHT22;12250;50.956;4.746;2023-04-24T06:27:24;9.10;99.90
24049;DHT22;12250;50.956;4.746;2023-04-24T06:29:50;9.10;99.90
24049;DHT22;12250;50.956;4.746;2023-04-24T06:32:23;9.20;99.90
24049;DHT22;12250;50.956;4.746;2023-04-24T06:34:50;9.20;99.90
24049;DHT22;12250;50.956;4.746;2023-04-24T06:37:16;9.30;99.90
24049;DHT22;12250;50.956;4.746;2023-04-24T06:39:42;9.30;99.90
24049;DHT22;12250;50.956;4.746;2023-04-24T06:42:08;9.30;99.90
24049;DHT22;12250;50.956;4.746;2023-04-24T06:44:35;9.40;99.90
24049;DHT22;12250;50.956;4.746;2023-04-24T06:47:09;9.40;99.90
24049;DHT22;12250;50.956;4.746;2023-04-24T06:49:36;9.40;99.90
24049;DHT22;12250;50.956;4.746;2023-04-24T06:52:02;9.40;99.90
24049;DHT22;12250;50.956;4.746;2023-04-24T06:54:29;9.40;99.90
24049;DHT22;12250;50.956;4.746;2023-04-24T06:56:55;9.40;99.90
24049;DHT22;12250;50.956;4.746;2023-04-24T06:59:26;9.50;99.90
24049;DHT22;12250;50.956;4.746;2023-04-24T07:01:51;9.40;99.90
24049;DHT22;12250;50.956;4.746;2023-04-24T07:04:18;9.40;99.90
24049;DHT22;12250;50.956;4.746;2023-04-24T07:06:45;9.40;99.90
24049;DHT22;12250;50.956;4.746;2023-04-24T07:09:11;9.50;99.90
24049;DHT22;12250;50.956;4.746;2023-04-24T07:11:39;9.50;99.90
24049;DHT22;12250;50.956;4.746;2023-04-24T07:14:06;9.50;99.90
24049;DHT22;12250;50.956;4.746;2023-04-24T07:16:32;9.40;99.90
24049;DHT22;12250;50.956;4.746;2023-04-24T07:18:58;9.50;99.90
24049;DHT22;12250;50.956;4.746;2023-04-24T07:21:23;9.50;99.90
24049;DHT22;12250;50.956;4.746;2023-04-24T07:23:49;9.60;99.90
24049;DHT22;12250;50.956;4.746;2023-04-24T07:26:15;9.60;99.90
24049;DHT22;12250;50.956;4.746;2023-04-24T07:28:41;9.60;99.90
24049;DHT22;12250;50.956;4.746;2023-04-24T07:31:07;9.70;99.90
24049;DHT22;12250;50.956;4.746;2023-04-24T07:33:33;9.70;99.90
24049;DHT22;12250;50.956;4.746;2023-04-24T07:35:59;9.80;99.90
24049;DHT22;12250;50.956;4.746;2023-04-24T07:38:25;9.90;99.90
24049;DHT22;12250;50.956;4.746;2023-04-24T07:40:51;10.00;99.90
24049;DHT22;12250;50.956;4.746;2023-04-24T07:43:19;10.00;99.90
24049;DHT22;12250;50.956;4.746;2023-04-24T07:45:45;10.00;99.90
24049;DHT22;12250;50.956;4.746;2023-04-24T07:48:11;10.00;99.90
24049;DHT22;12250;50.956;4.746;2023-04-24T07:50:39;10.10;99.90
24049;DHT22;12250;50.956;4.746;2023-04-24T07:53:04;10.10;99.90
24049;DHT22;12250;50.956;4.746;2023-04-24T07:55:30;10.10;99.90
24049;DHT22;12250;50.956;4.746;2023-04-24T07:57:56;10.00;99.90
24049;DHT22;12250;50.956;4.746;2023-04-24T08:00:21;9.90;99.90
24049;DHT22;12250;50.956;4.746;2023-04-24T08:02:47;9.90;99.90
24049;DHT22;12250;50.956;4.746;2023-04-24T08:05:13;9.90;99.90
24049;DHT22;12250;50.956;4.746;2023-04-24T08:07:38;10.00;99.90
24049;DHT22;12250;50.956;4.746;2023-04-24T08:10:05;9.90;99.90
24049;DHT22;12250;50.956;4.746;2023-04-24T08:12:31;9.90;99.90
24049;DHT22;12250;50.956;4.746;2023-04-24T08:14:56;9.90;99.90
24049;DHT22;12250;50.956;4.746;2023-04-24T08:17:23;9.90;99.90
24049;DHT22;12250;50.956;4.746;2023-04-24T08:19:49;9.90;99.90
24049;DHT22;12250;50.956;4.746;2023-04-24T08:22:17;9.70;99.90
24049;DHT22;12250;50.956;4.746;2023-04-24T08:24:43;9.70;99.90
24049;DHT22;12250;50.956;4.746;2023-04-24T08:27:09;9.60;99.90
24049;DHT22;12250;50.956;4.746;2023-04-24T08:29:36;9.50;99.90
24049;DHT22;12250;50.956;4.746;2023-04-24T08:32:02;9.40;99.90
24049;DHT22;12250;50.956;4.746;2023-04-24T08:34:28;9.50;99.90
24049;DHT22;12250;50.956;4.746;2023-04-24T08:36:54;9.80;99.90
24049;DHT22;12250;50.956;4.746;2023-04-24T08:39:20;10.30;99.90
24049;DHT22;12250;50.956;4.746;2023-04-24T08:41:48;11.30;99.90
24049;DHT22;12250;50.956;4.746;2023-04-24T08:44:14;13.40;99.90
24049;DHT22;12250;50.956;4.746;2023-04-24T08:46:43;15.40;99.90
24049;DHT22;12250;50.956;4.746;2023-04-24T08:49:12;17.40;99.90
24049;DHT22;12250;50.956;4.746;2023-04-24T08:51:39;19.00;99.90
24049;DHT22;12250;50.956;4.746;2023-04-24T08:54:05;20.60;99.90
24049;DHT22;12250;50.956;4.746;2023-04-24T08:56:34;19.60;99.50
24049;DHT22;12250;50.956;4.746;2023-04-24T08:59:04;19.70;99.40
24049;DHT22;12250;50.956;4.746;2023-04-24T09:01:32;20.00;98.40
24049;DHT22;12250;50.956;4.746;2023-04-24T09:04:02;19.90;96.50
24049;DHT22;12250;50.956;4.746;2023-04-24T09:06:28;20.30;97.90
24049;DHT22;12250;50.956;4.746;2023-04-24T09:08:54;19.30;97.40
24049;DHT22;12250;50.956;4.746;2023-04-24T09:11:21;17.90;98.50
24049;DHT22;12250;50.956;4.746;2023-04-24T09:13:49;16.80;99.90
24049;DHT22;12250;50.956;4.746;2023-04-24T09:16:16;15.70;99.90
24049;DHT22;12250;50.956;4.746;2023-04-24T09:18:42;14.80;99.90
24049;DHT22;12250;50.956;4.746;2023-04-24T09:21:09;14.10;99.90
24049;DHT22;12250;50.956;4.746;2023-04-24T09:23:35;13.60;99.90
24049;DHT22;12250;50.956;4.746;2023-04-24T09:26:02;13.30;99.90
24049;DHT22;12250;50.956;4.746;2023-04-24T09:28:37;13.40;99.90
24049;DHT22;12250;50.956;4.746;2023-04-24T09:33:29;14.60;99.90
24049;DHT22;12250;50.956;4.746;2023-04-24T09:35:54;15.10;99.90
24049;DHT22;12250;50.956;4.746;2023-04-24T09:38:34;17.90;99.90
24049;DHT22;12250;50.956;4.746;2023-04-24T09:41:06;21.70;97.60
24049;DHT22;12250;50.956;4.746;2023-04-24T09:43:32;21.70;91.30
24049;DHT22;12250;50.956;4.746;2023-04-24T09:46:00;20.70;91.60
24049;DHT22;12250;50.956;4.746;2023-04-24T09:48:35;19.80;93.40
24049;DHT22;12250;50.956;4.746;2023-04-24T09:51:03;18.80;94.80
24049;DHT22;12250;50.956;4.746;2023-04-24T09:53:30;17.90;95.80
24049;DHT22;12250;50.956;4.746;2023-04-24T09:56:01;17.00;97.60
24049;DHT22;12250;50.956;4.746;2023-04-24T09:58:28;16.00;99.10
24049;DHT22;12250;50.956;4.746;2023-04-24T10:00:55;15.20;99.90
24049;DHT22;12250;50.956;4.746;2023-04-24T10:03:24;14.50;99.90
24049;DHT22;12250;50.956;4.746;2023-04-24T10:06:02;14.30;99.90
24049;DHT22;12250;50.956;4.746;2023-04-24T10:08:33;14.30;99.90
24049;DHT22;12250;50.956;4.746;2023-04-24T10:11:00;14.20;99.90
24049;DHT22;12250;50.956;4.746;2023-04-24T10:13:26;14.30;99.90
24049;DHT22;12250;50.956;4.746;2023-04-24T10:15:52;17.30;99.90
24049;DHT22;12250;50.956;4.746;2023-04-24T10:18:20;19.30;95.70
24049;DHT22;12250;50.956;4.746;2023-04-24T10:20:47;18.50;94.00
24049;DHT22;12250;50.956;4.746;2023-04-24T10:23:13;17.60;95.50
24049;DHT22;12250;50.956;4.746;2023-04-24T10:25:39;16.80;97.30
24049;DHT22;12250;50.956;4.746;2023-04-24T10:28:05;15.80;97.20
24049;DHT22;12250;50.956;4.746;2023-04-24T10:30:32;15.30;97.90
24049;DHT22;12250;50.956;4.746;2023-04-24T10:33:05;14.90;98.30
24049;DHT22;12250;50.956;4.746;2023-04-24T10:35:36;15.00;98.60
24049;DHT22;12250;50.956;4.746;2023-04-24T10:38:06;15.60;98.60
24049;DHT22;12250;50.956;4.746;2023-04-24T10:40:34;15.90;98.50
24049;DHT22;12250;50.956;4.746;2023-04-24T10:43:08;15.60;97.60
24049;DHT22;12250;50.956;4.746;2023-04-24T10:45:37;15.10;97.50
24049;DHT22;12250;50.956;4.746;2023-04-24T10:48:08;14.60;98.90
24049;DHT22;12250;50.956;4.746;2023-04-24T10:53:18;14.30;98.80
24049;DHT22;12250;50.956;4.746;2023-04-24T10:58:11;15.80;99.60
24049;DHT22;12250;50.956;4.746;2023-04-24T11:00:41;17.40;95.70
24049;DHT22;12250;50.956;4.746;2023-04-24T11:03:24;17.50;93.70
24049;DHT22;12250;50.956;4.746;2023-04-24T11:08:24;17.80;92.10
24049;DHT22;12250;50.956;4.746;2023-04-24T11:10:58;16.70;93.00
24049;DHT22;12250;50.956;4.746;2023-04-24T11:13:26;15.70;93.60
24049;DHT22;12250;50.956;4.746;2023-04-24T11:18:41;15.10;95.40
24049;DHT22;12250;50.956;4.746;2023-04-24T11:21:13;14.90;96.30
24049;DHT22;12250;50.956;4.746;2023-04-24T11:23:41;15.00;95.60
24049;DHT22;12250;50.956;4.746;2023-04-24T11:26:11;15.40;95.30
24049;DHT22;12250;50.956;4.746;2023-04-24T11:28:47;15.80;95.50
24049;DHT22;12250;50.956;4.746;2023-04-24T11:31:39;16.20;94.60
24049;DHT22;12250;50.956;4.746;2023-04-24T11:34:09;16.20;94.00
24049;DHT22;12250;50.956;4.746;2023-04-24T11:36:35;16.20;93.90
24049;DHT22;12250;50.956;4.746;2023-04-24T11:39:02;16.30;94.80
24049;DHT22;12250;50.956;4.746;2023-04-24T11:41:28;16.90;94.30
24049;DHT22;12250;50.956;4.746;2023-04-24T11:43:55;17.40;92.80
24049;DHT22;12250;50.956;4.746;2023-04-24T11:46:22;17.60;92.00
24049;DHT22;12250;50.956;4.746;2023-04-24T11:48:47;17.50;91.00
24049;DHT22;12250;50.956;4.746;2023-04-24T11:51:14;16.90;91.30
24049;DHT22;12250;50.956;4.746;2023-04-24T11:53:40;16.30;92.10
24049;DHT22;12250;50.956;4.746;2023-04-24T11:56:05;15.90;92.20
24049;DHT22;12250;50.956;4.746;2023-04-24T11:58:35;15.70;93.30
24049;DHT22;12250;50.956;4.746;2023-04-24T12:01:02;15.80;94.90
24049;DHT22;12250;50.956;4.746;2023-04-24T12:03:28;16.30;93.70
24049;DHT22;12250;50.956;4.746;2023-04-24T12:06:08;16.70;92.60
24049;DHT22;12250;50.956;4.746;2023-04-24T12:08:34;16.70;90.70
24049;DHT22;12250;50.956;4.746;2023-04-24T12:11:04;16.40;90.50
24049;DHT22;12250;50.956;4.746;2023-04-24T12:13:30;16.00;92.10
24049;DHT22;12250;50.956;4.746;2023-04-24T12:15:59;16.00;91.60
24049;DHT22;12250;50.956;4.746;2023-04-24T12:18:26;16.10;91.60
24049;DHT22;12250;50.956;4.746;2023-04-24T12:20:51;16.40;92.40
24049;DHT22;12250;50.956;4.746;2023-04-24T12:23:33;16.40;91.00
24049;DHT22;12250;50.956;4.746;2023-04-24T12:26:00;16.10;91.70
24049;DHT22;12250;50.956;4.746;2023-04-24T12:28:38;16.00;91.70
24049;DHT22;12250;50.956;4.746;2023-04-24T12:31:04;16.00;92.10
24049;DHT22;12250;50.956;4.746;2023-04-24T12:33:35;15.90;91.70
24049;DHT22;12250;50.956;4.746;2023-04-24T12:36:01;15.90;92.90
24049;DHT22;12250;50.956;4.746;2023-04-24T12:38:27;16.00;92.40
24049;DHT22;12250;50.956;4.746;2023-04-24T12:41:21;15.90;92.40
24049;DHT22;12250;50.956;4.746;2023-04-24T12:43:53;16.20;93.20
24049;DHT22;12250;50.956;4.746;2023-04-24T12:46:20;16.50;92.70
24049;DHT22;12250;50.956;4.746;2023-04-24T12:48:46;16.40;91.60
24049;DHT22;12250;50.956;4.746;2023-04-24T12:51:12;16.30;90.80
24049;DHT22;12250;50.956;4.746;2023-04-24T12:53:37;16.30;92.10
24049;DHT22;12250;50.956;4.746;2023-04-24T12:56:03;16.50;93.00
24049;DHT22;12250;50.956;4.746;2023-04-24T12:58:29;17.00;92.10
24049;DHT22;12250;50.956;4.746;2023-04-24T13:00:55;17.40;91.50
24049;DHT22;12250;50.956;4.746;2023-04-24T13:03:20;17.90;92.00
24049;DHT22;12250;50.956;4.746;2023-04-24T13:05:47;18.00;87.80
24049;DHT22;12250;50.956;4.746;2023-04-24T13:08:13;17.80;89.50
24049;DHT22;12250;50.956;4.746;2023-04-24T13:10:39;17.50;90.10
24049;DHT22;12250;50.956;4.746;2023-04-24T13:13:06;17.50;89.80
24049;DHT22;12250;50.956;4.746;2023-04-24T13:15:33;17.40;89.10
24049;DHT22;12250;50.956;4.746;2023-04-24T13:17:58;17.40;90.20
24049;DHT22;12250;50.956;4.746;2023-04-24T13:20:24;17.80;90.50
24049;DHT22;12250;50.956;4.746;2023-04-24T13:22:50;18.20;89.60
24049;DHT22;12250;50.956;4.746;2023-04-24T13:25:16;18.10;86.40
24049;DHT22;12250;50.956;4.746;2023-04-24T13:27:42;18.00;86.90
24049;DHT22;12250;50.956;4.746;2023-04-24T13:30:08;17.80;86.80
24049;DHT22;12250;50.956;4.746;2023-04-24T13:32:34;17.80;87.50
24049;DHT22;12250;50.956;4.746;2023-04-24T13:35:00;17.70;90.60
24049;DHT22;12250;50.956;4.746;2023-04-24T13:37:26;17.50;89.00
24049;DHT22;12250;50.956;4.746;2023-04-24T13:39:52;17.40;90.10
24049;DHT22;12250;50.956;4.746;2023-04-24T13:42:17;17.20;90.00
24049;DHT22;12250;50.956;4.746;2023-04-24T13:44:44;16.90;89.00
24049;DHT22;12250;50.956;4.746;2023-04-24T13:47:09;16.90;91.30
24049;DHT22;12250;50.956;4.746;2023-04-24T13:49:35;16.80;90.30
24049;DHT22;12250;50.956;4.746;2023-04-24T13:52:02;16.80;89.70
24049;DHT22;12250;50.956;4.746;2023-04-24T13:54:27;16.60;89.70
24049;DHT22;12250;50.956;4.746;2023-04-24T13:56:55;16.80;89.20
24049;DHT22;12250;50.956;4.746;2023-04-24T13:59:21;17.00;87.80
24049;DHT22;12250;50.956;4.746;2023-04-24T14:01:47;17.20;88.30
24049;DHT22;12250;50.956;4.746;2023-04-24T14:04:13;17.20;86.20
24049;DHT22;12250;50.956;4.746;2023-04-24T14:06:38;16.90;88.70
24049;DHT22;12250;50.956;4.746;2023-04-24T14:09:04;16.60;88.40
24049;DHT22;12250;50.956;4.746;2023-04-24T14:11:30;16.70;88.60
24049;DHT22;12250;50.956;4.746;2023-04-24T14:13:55;17.00;87.30
24049;DHT22;12250;50.956;4.746;2023-04-24T14:16:24;17.10;85.40
24049;DHT22;12250;50.956;4.746;2023-04-24T14:18:50;17.00;84.40
24049;DHT22;12250;50.956;4.746;2023-04-24T14:21:16;17.00;86.00
24049;DHT22;12250;50.956;4.746;2023-04-24T14:23:42;17.10;89.40
24049;DHT22;12250;50.956;4.746;2023-04-24T14:26:07;17.30;86.80
24049;DHT22;12250;50.956;4.746;2023-04-24T14:28:33;17.10;85.20
24049;DHT22;12250;50.956;4.746;2023-04-24T14:30:59;17.00;87.00
24049;DHT22;12250;50.956;4.746;2023-04-24T14:33:25;17.20;90.00
24049;DHT22;12250;50.956;4.746;2023-04-24T14:35:51;17.40;87.80
24049;DHT22;12250;50.956;4.746;2023-04-24T14:38:17;17.10;85.80
24049;DHT22;12250;50.956;4.746;2023-04-24T14:40:42;16.80;84.90
24049;DHT22;12250;50.956;4.746;2023-04-24T14:43:08;16.10;86.80
24049;DHT22;12250;50.956;4.746;2023-04-24T14:45:34;15.60;89.80
24049;DHT22;12250;50.956;4.746;2023-04-24T14:48:00;15.60;90.70
24049;DHT22;12250;50.956;4.746;2023-04-24T14:50:25;15.70;88.50
24049;DHT22;12250;50.956;4.746;2023-04-24T14:52:54;15.70;88.80
24049;DHT22;12250;50.956;4.746;2023-04-24T14:55:23;16.00;89.20
24049;DHT22;12250;50.956;4.746;2023-04-24T14:57:48;16.30;89.80
24049;DHT22;12250;50.956;4.746;2023-04-24T15:00:14;16.60;85.00
24049;DHT22;12250;50.956;4.746;2023-04-24T15:02:42;16.70;85.80
24049;DHT22;12250;50.956;4.746;2023-04-24T15:05:10;17.00;86.00
24049;DHT22;12250;50.956;4.746;2023-04-24T15:07:37;17.30;83.00
24049;DHT22;12250;50.956;4.746;2023-04-24T15:10:03;17.30;80.70
24049;DHT22;12250;50.956;4.746;2023-04-24T15:12:29;17.30;83.40
24049;DHT22;12250;50.956;4.746;2023-04-24T15:14:55;16.90;81.60
24049;DHT22;12250;50.956;4.746;2023-04-24T15:17:21;16.80;80.80
24049;DHT22;12250;50.956;4.746;2023-04-24T15:19:46;16.40;82.50
24049;DHT22;12250;50.956;4.746;2023-04-24T15:22:13;16.00;84.10
24049;DHT22;12250;50.956;4.746;2023-04-24T15:24:39;15.80;85.80
24049;DHT22;12250;50.956;4.746;2023-04-24T15:27:05;15.60;86.60
24049;DHT22;12250;50.956;4.746;2023-04-24T15:29:30;15.70;86.90
24049;DHT22;12250;50.956;4.746;2023-04-24T15:31:56;15.80;88.30
24049;DHT22;12250;50.956;4.746;2023-04-24T15:34:22;15.80;86.40
24049;DHT22;12250;50.956;4.746;2023-04-24T15:36:47;15.60;85.40
24049;DHT22;12250;50.956;4.746;2023-04-24T15:39:13;15.70;86.20
24049;DHT22;12250;50.956;4.746;2023-04-24T15:41:38;15.70;87.20
24049;DHT22;12250;50.956;4.746;2023-04-24T15:44:04;15.60;86.50
24049;DHT22;12250;50.956;4.746;2023-04-24T15:46:30;15.60;87.70